Time;durP1;ratioP1;P1;durP2;ratioP2;P2;SDS_P1;SDS_P2;PMS_P1;PMS_P2;Temp;Humidity;BMP_temperature;BMP_pressure;BME280_temperature;BME280_humidity;BME280_pressure;Samples;Min_cycle;Max_cycle;Signal;HPM_P1;HPM_P2
2022/07/19 00:02:01;;;;;;;;;;;21.80;99.90;;;;;;5062961;28;19925;-75
2022/07/19 00:04:28;;;;;;;;;;;21.70;99.90;;;;;;5069780;28;19978;-76
2022/07/19 00:06:55;;;;;;;;;;;21.70;99.90;;;;;;5064582;28;20363;-76
2022/07/19 00:09:22;;;;;;;;;;;21.70;99.90;;;;;;5075574;28;19929;-75
2022/07/19 00:11:49;;;;;;;;;;;21.60;99.90;;;;;;5051674;28;20454;-76
2022/07/19 00:14:17;;;;;;;;;;;21.60;99.90;;;;;;5062839;28;19928;-75
2022/07/19 00:16:44;;;;;;;;;;;21.50;99.90;;;;;;5067072;28;19925;-75
2022/07/19 00:19:11;;;;;;;;;;;21.40;99.90;;;;;;5055590;28;19924;-75
2022/07/19 00:21:38;;;;;;;;;;;21.40;99.90;;;;;;5060413;28;19925;-76
2022/07/19 00:24:04;;;;;;;;;;;21.40;99.90;;;;;;5056663;28;19987;-75
2022/07/19 00:26:31;;;;;;;;;;;21.30;99.90;;;;;;5078057;28;19932;-76
2022/07/19 00:29:00;;;;;;;;;;;21.30;99.90;;;;;;5054762;28;19939;-75
2022/07/19 00:31:29;;;;;;;;;;;21.20;99.90;;;;;;5060854;28;19960;-75
2022/07/19 00:33:56;;;;;;;;;;;21.20;99.90;;;;;;5059589;28;20414;-76
2022/07/19 00:36:22;;;;;;;;;;;21.10;99.90;;;;;;5070104;28;19929;-76
2022/07/19 00:38:49;;;;;;;;;;;21.20;99.90;;;;;;5065106;28;19928;-76
2022/07/19 00:41:16;;;;;;;;;;;21.20;99.90;;;;;;5054925;28;19925;-76
2022/07/19 00:43:43;;;;;;;;;;;21.20;99.90;;;;;;5059951;28;19936;-76
2022/07/19 00:46:14;;;;;;;;;;;21.20;99.90;;;;;;5055996;28;19925;-77
2022/07/19 00:48:42;;;;;;;;;;;21.10;99.90;;;;;;5078617;28;20012;-76
2022/07/19 00:51:10;;;;;;;;;;;21.10;99.90;;;;;;5057573;28;20423;-77
2022/07/19 00:53:37;;;;;;;;;;;21.10;99.90;;;;;;5056672;28;19928;-76
2022/07/19 00:56:04;;;;;;;;;;;21.00;99.90;;;;;;5065691;28;19933;-76
2022/07/19 00:58:32;;;;;;;;;;;21.00;99.90;;;;;;5060657;28;19924;-76
2022/07/19 01:00:58;;;;;;;;;;;21.00;99.90;;;;;;5066695;28;19925;-76
2022/07/19 01:03:26;;;;;;;;;;;21.00;99.90;;;;;;5066767;28;20027;-77
2022/07/19 01:05:54;;;;;;;;;;;21.00;99.90;;;;;;5061556;28;20028;-76
2022/07/19 01:08:20;;;;;;;;;;;20.90;99.90;;;;;;5066138;28;19925;-76
2022/07/19 01:10:47;;;;;;;;;;;20.90;99.90;;;;;;5054670;28;20352;-77
2022/07/19 01:13:14;;;;;;;;;;;20.80;99.90;;;;;;5072079;28;19925;-76
2022/07/19 01:15:42;;;;;;;;;;;20.80;99.90;;;;;;5060608;28;20023;-77
2022/07/19 01:18:08;;;;;;;;;;;20.70;99.90;;;;;;5075419;28;20399;-76
2022/07/19 01:20:35;;;;;;;;;;;20.60;99.90;;;;;;5057153;28;19967;-77
2022/07/19 01:23:03;;;;;;;;;;;20.60;99.90;;;;;;5061654;28;20342;-77
2022/07/19 01:25:31;;;;;;;;;;;20.60;99.90;;;;;;5063741;28;20264;-77
2022/07/19 01:27:59;;;;;;;;;;;20.50;99.90;;;;;;5058059;28;19924;-77
2022/07/19 01:30:26;;;;;;;;;;;20.50;99.90;;;;;;5066021;28;20346;-77
2022/07/19 01:32:54;;;;;;;;;;;20.40;99.90;;;;;;5062974;28;19925;-77
2022/07/19 01:35:21;;;;;;;;;;;20.30;99.90;;;;;;5068411;28;19994;-77
2022/07/19 01:37:48;;;;;;;;;;;20.20;99.90;;;;;;5054299;28;19932;-77
2022/07/19 01:40:17;;;;;;;;;;;20.20;99.90;;;;;;5073349;28;19924;-77
2022/07/19 01:42:44;;;;;;;;;;;20.10;99.90;;;;;;5060229;28;19979;-77
2022/07/19 01:45:11;;;;;;;;;;;20.10;99.90;;;;;;5062721;28;19924;-76
2022/07/19 01:47:40;;;;;;;;;;;20.00;99.90;;;;;;5057107;28;19932;-77
2022/07/19 01:50:10;;;;;;;;;;;20.00;99.90;;;;;;5045804;28;23185;-77
2022/07/19 01:52:37;;;;;;;;;;;20.00;99.90;;;;;;5071390;28;19925;-77
2022/07/19 01:55:04;;;;;;;;;;;20.00;99.90;;;;;;5058921;28;19966;-77
2022/07/19 01:57:33;;;;;;;;;;;20.00;99.90;;;;;;5056522;28;19937;-76
2022/07/19 01:59:59;;;;;;;;;;;20.00;99.90;;;;;;5076731;28;19974;-77
2022/07/19 02:02:26;;;;;;;;;;;20.00;99.90;;;;;;5056737;28;19932;-77
2022/07/19 02:04:53;;;;;;;;;;;20.00;99.90;;;;;;5063842;28;19924;-76
2022/07/19 02:07:20;;;;;;;;;;;20.00;99.90;;;;;;5056289;28;19968;-77
2022/07/19 02:09:46;;;;;;;;;;;19.90;99.90;;;;;;5062671;28;19932;-76
2022/07/19 02:12:13;;;;;;;;;;;19.90;99.90;;;;;;5071762;28;19978;-76
2022/07/19 02:14:41;;;;;;;;;;;19.90;99.90;;;;;;5073473;28;20436;-75
2022/07/19 02:17:08;;;;;;;;;;;19.90;99.90;;;;;;5076081;28;19933;-76
2022/07/19 02:19:35;;;;;;;;;;;19.90;99.90;;;;;;5056284;28;19971;-75
2022/07/19 02:22:02;;;;;;;;;;;19.90;99.90;;;;;;5060740;28;19924;-75
2022/07/19 02:24:28;;;;;;;;;;;19.80;99.90;;;;;;5064812;28;19929;-75
2022/07/19 02:26:55;;;;;;;;;;;19.80;99.90;;;;;;5056248;28;20403;-75
2022/07/19 02:29:22;;;;;;;;;;;19.80;99.90;;;;;;5057924;28;19924;-74
2022/07/19 02:31:50;;;;;;;;;;;19.80;99.90;;;;;;5055638;28;19924;-74
2022/07/19 02:34:17;;;;;;;;;;;19.80;99.90;;;;;;5060514;28;20350;-74
2022/07/19 02:36:43;;;;;;;;;;;19.80;99.90;;;;;;5061304;28;19931;-74
2022/07/19 02:39:10;;;;;;;;;;;19.70;99.90;;;;;;5054027;28;19974;-74
2022/07/19 02:41:37;;;;;;;;;;;19.60;99.90;;;;;;5056733;28;19928;-74
2022/07/19 02:44:04;;;;;;;;;;;19.50;99.90;;;;;;5057568;28;19928;-73
2022/07/19 02:46:31;;;;;;;;;;;19.50;99.90;;;;;;5055983;28;19974;-74
2022/07/19 02:48:59;;;;;;;;;;;19.50;99.90;;;;;;5059860;28;19925;-73
2022/07/19 02:51:26;;;;;;;;;;;;;;;;;;5059544;28;19936;-73
2022/07/19 02:53:53;;;;;;;;;;;19.40;99.90;;;;;;5064386;28;19957;-73
2022/07/19 02:56:19;;;;;;;;;;;19.40;99.90;;;;;;5064076;28;20281;-72
2022/07/19 02:58:46;;;;;;;;;;;19.40;99.90;;;;;;5057172;28;19929;-74
2022/07/19 03:01:13;;;;;;;;;;;19.40;99.90;;;;;;5076039;28;19971;-73
2022/07/19 03:03:47;;;;;;;;;;;19.30;99.90;;;;;;5059429;28;19986;-72
2022/07/19 03:06:16;;;;;;;;;;;19.30;99.90;;;;;;5073433;28;19931;-73
2022/07/19 03:08:42;;;;;;;;;;;19.30;99.90;;;;;;5078300;28;20017;-73
2022/07/19 03:11:09;;;;;;;;;;;19.30;99.90;;;;;;5059655;28;20323;-73
2022/07/19 03:13:36;;;;;;;;;;;19.20;99.90;;;;;;5060729;28;19932;-73
2022/07/19 03:16:03;;;;;;;;;;;19.20;99.90;;;;;;5064599;28;19928;-73
2022/07/19 03:18:29;;;;;;;;;;;19.20;99.90;;;;;;5058502;28;20383;-73
2022/07/19 03:20:58;;;;;;;;;;;19.20;99.90;;;;;;5067657;28;19925;-73
2022/07/19 03:23:26;;;;;;;;;;;19.20;99.90;;;;;;5073919;28;20458;-72
2022/07/19 03:25:53;;;;;;;;;;;19.10;99.90;;;;;;5066270;28;19943;-72
2022/07/19 03:28:20;;;;;;;;;;;19.00;99.90;;;;;;5077259;28;20396;-73
2022/07/19 03:30:47;;;;;;;;;;;19.00;99.90;;;;;;5055049;28;19925;-73
2022/07/19 03:33:15;;;;;;;;;;;19.00;99.90;;;;;;5066277;28;19979;-73
2022/07/19 03:35:42;;;;;;;;;;;18.90;99.90;;;;;;5062937;28;19931;-73
2022/07/19 03:38:09;;;;;;;;;;;18.90;99.90;;;;;;5058726;28;19925;-72
2022/07/19 03:40:38;;;;;;;;;;;18.90;99.90;;;;;;5063429;28;19924;-74
2022/07/19 03:43:05;;;;;;;;;;;18.90;99.90;;;;;;5065988;28;19925;-73
2022/07/19 03:45:32;;;;;;;;;;;18.80;99.90;;;;;;5059898;28;19925;-73
2022/07/19 03:48:00;;;;;;;;;;;18.70;99.90;;;;;;5065694;28;20403;-72
2022/07/19 03:50:26;;;;;;;;;;;18.60;99.90;;;;;;5059819;28;19932;-72
2022/07/19 03:52:53;;;;;;;;;;;18.60;99.90;;;;;;5079923;28;20416;-73
2022/07/19 03:55:20;;;;;;;;;;;18.60;99.90;;;;;;5065293;28;19925;-72
2022/07/19 03:57:48;;;;;;;;;;;18.50;99.90;;;;;;5054001;28;20459;-72
2022/07/19 04:00:15;;;;;;;;;;;18.50;99.90;;;;;;5066495;28;19925;-73
2022/07/19 04:02:42;;;;;;;;;;;18.50;99.90;;;;;;5061166;28;19924;-72
2022/07/19 04:05:09;;;;;;;;;;;18.60;99.90;;;;;;5066948;28;19933;-73
2022/07/19 04:07:36;;;;;;;;;;;18.60;99.90;;;;;;5057099;28;19929;-73
2022/07/19 04:10:03;;;;;;;;;;;18.60;99.90;;;;;;5077605;28;19967;-72
2022/07/19 04:12:29;;;;;;;;;;;18.70;99.90;;;;;;5064396;28;19978;-73
2022/07/19 04:14:58;;;;;;;;;;;18.70;99.90;;;;;;5062731;28;19943;-73
2022/07/19 04:17:24;;;;;;;;;;;18.70;99.90;;;;;;5065391;28;20358;-73
2022/07/19 04:19:51;;;;;;;;;;;18.80;99.90;;;;;;5063297;28;19924;-72
2022/07/19 04:22:18;;;;;;;;;;;18.80;99.90;;;;;;5065832;28;19978;-73
2022/07/19 04:24:45;;;;;;;;;;;18.80;99.90;;;;;;5060484;28;20295;-73
2022/07/19 04:27:12;;;;;;;;;;;18.90;99.90;;;;;;5060179;28;19946;-73
2022/07/19 04:29:39;;;;;;;;;;;18.90;99.90;;;;;;5056955;28;20404;-72
2022/07/19 04:32:07;;;;;;;;;;;18.90;99.90;;;;;;5065007;28;19928;-72
2022/07/19 04:34:34;;;;;;;;;;;18.90;99.90;;;;;;5064774;28;19925;-72
2022/07/19 04:37:01;;;;;;;;;;;18.90;99.90;;;;;;5062617;28;19928;-73
2022/07/19 04:39:27;;;;;;;;;;;18.90;99.90;;;;;;5057986;28;19924;-72
2022/07/19 04:41:54;;;;;;;;;;;18.90;99.90;;;;;;5052799;28;20330;-72
2022/07/19 04:44:21;;;;;;;;;;;19.00;99.90;;;;;;5063637;28;19997;-72
2022/07/19 04:46:48;;;;;;;;;;;19.00;99.90;;;;;;5052992;28;19925;-72
2022/07/19 04:49:16;;;;;;;;;;;19.10;99.90;;;;;;5060604;28;19928;-72
2022/07/19 04:51:43;;;;;;;;;;;19.20;99.90;;;;;;5065808;28;19986;-72
2022/07/19 04:54:09;;;;;;;;;;;19.30;99.90;;;;;;5060867;28;19924;-73
2022/07/19 04:56:36;;;;;;;;;;;19.30;99.90;;;;;;5063658;28;19925;-74
2022/07/19 04:59:03;;;;;;;;;;;19.40;99.90;;;;;;5052376;28;20358;-75
2022/07/19 05:01:30;;;;;;;;;;;19.50;99.90;;;;;;5061575;28;19932;-75
2022/07/19 05:03:57;;;;;;;;;;;19.50;99.90;;;;;;5053766;28;19925;-76
2022/07/19 05:06:25;;;;;;;;;;;19.60;99.90;;;;;;5049773;28;19925;-76
2022/07/19 05:08:52;;;;;;;;;;;19.80;99.90;;;;;;5064074;28;19970;-75
2022/07/19 05:11:19;;;;;;;;;;;19.90;99.90;;;;;;5074021;28;19924;-73
2022/07/19 05:13:46;;;;;;;;;;;20.00;99.90;;;;;;5066154;28;19925;-70
2022/07/19 05:16:13;;;;;;;;;;;20.10;99.90;;;;;;5074155;28;19990;-70
2022/07/19 05:18:39;;;;;;;;;;;20.30;99.90;;;;;;5060809;28;19925;-74
2022/07/19 05:21:06;;;;;;;;;;;20.30;99.90;;;;;;5055577;28;19928;-73
2022/07/19 05:23:35;;;;;;;;;;;20.40;99.90;;;;;;5070245;28;19925;-74
2022/07/19 05:26:01;;;;;;;;;;;20.50;99.90;;;;;;5058449;28;19928;-74
2022/07/19 05:28:28;;;;;;;;;;;20.60;99.90;;;;;;5054214;28;19934;-74
2022/07/19 05:30:55;;;;;;;;;;;20.70;99.90;;;;;;5061616;28;19932;-74
2022/07/19 05:33:21;;;;;;;;;;;20.80;99.90;;;;;;5073412;28;19929;-74
2022/07/19 05:35:48;;;;;;;;;;;20.80;99.90;;;;;;5057368;28;19925;-73
2022/07/19 05:38:15;;;;;;;;;;;21.00;99.90;;;;;;5055147;28;20432;-73
2022/07/19 05:40:43;;;;;;;;;;;21.10;99.90;;;;;;5052830;28;19929;-75
2022/07/19 05:43:10;;;;;;;;;;;21.20;99.90;;;;;;5057144;28;20355;-75
2022/07/19 05:45:37;;;;;;;;;;;21.40;99.90;;;;;;5046841;28;19925;-74
2022/07/19 05:48:04;;;;;;;;;;;21.40;99.90;;;;;;5046448;28;19925;-75
2022/07/19 05:50:30;;;;;;;;;;;21.50;99.90;;;;;;5054941;28;19928;-74
2022/07/19 05:52:57;;;;;;;;;;;21.60;99.90;;;;;;5049807;28;19928;-74
2022/07/19 05:55:24;;;;;;;;;;;21.80;99.90;;;;;;5048857;28;19987;-74
2022/07/19 05:57:52;;;;;;;;;;;21.90;99.90;;;;;;5050187;28;20358;-74
2022/07/19 06:00:19;;;;;;;;;;;22.00;99.90;;;;;;5049420;28;20439;-74
2022/07/19 06:02:46;;;;;;;;;;;22.20;99.90;;;;;;5046888;28;19931;-74
2022/07/19 06:05:12;;;;;;;;;;;22.30;99.90;;;;;;5047470;28;19983;-75
2022/07/19 06:07:39;;;;;;;;;;;22.50;99.90;;;;;;5052720;28;19928;-74
2022/07/19 06:10:06;;;;;;;;;;;22.60;99.90;;;;;;5051109;28;19948;-75
2022/07/19 06:12:33;;;;;;;;;;;22.70;99.90;;;;;;5050496;28;20026;-74
2022/07/19 06:15:01;;;;;;;;;;;22.80;99.90;;;;;;5048279;28;19929;-75
2022/07/19 06:17:28;;;;;;;;;;;23.00;99.90;;;;;;5074720;28;19925;-74
2022/07/19 06:19:55;;;;;;;;;;;23.10;99.90;;;;;;5058071;28;19925;-75
2022/07/19 06:22:22;;;;;;;;;;;23.20;99.90;;;;;;5055869;28;19990;-75
2022/07/19 06:24:48;;;;;;;;;;;23.40;99.90;;;;;;5049314;28;19929;-74
2022/07/19 06:27:15;;;;;;;;;;;23.50;99.90;;;;;;5078091;28;19925;-75
2022/07/19 06:29:42;;;;;;;;;;;23.60;99.90;;;;;;5063036;28;19928;-76
2022/07/19 06:32:10;;;;;;;;;;;23.70;99.90;;;;;;5073499;28;19933;-75
2022/07/19 06:34:37;;;;;;;;;;;23.80;99.90;;;;;;5052170;28;20465;-76
2022/07/19 06:37:04;;;;;;;;;;;23.90;99.90;;;;;;5066323;28;19928;-76
2022/07/19 06:39:30;;;;;;;;;;;24.10;99.90;;;;;;5076404;28;19929;-75
2022/07/19 06:41:57;;;;;;;;;;;24.10;99.90;;;;;;5065088;28;19924;-75
2022/07/19 06:44:24;;;;;;;;;;;24.30;99.90;;;;;;5058404;28;19925;-74
2022/07/19 06:46:51;;;;;;;;;;;24.50;99.90;;;;;;5054082;28;19925;-75
2022/07/19 06:49:19;;;;;;;;;;;24.60;99.90;;;;;;5075687;28;20362;-73
2022/07/19 06:51:45;;;;;;;;;;;24.70;99.90;;;;;;5063234;28;20346;-74
2022/07/19 06:54:12;;;;;;;;;;;24.90;99.90;;;;;;5069578;28;19986;-74
2022/07/19 06:56:39;;;;;;;;;;;25.00;99.90;;;;;;5055941;28;19924;-75
2022/07/19 06:59:06;;;;;;;;;;;25.10;99.90;;;;;;5069242;28;19978;-75
2022/07/19 07:01:32;;;;;;;;;;;25.30;99.90;;;;;;5059250;28;19932;-74
2022/07/19 07:03:59;;;;;;;;;;;25.50;99.90;;;;;;5068602;28;19924;-74
2022/07/19 07:06:27;;;;;;;;;;;25.60;99.90;;;;;;5068112;28;19958;-75
2022/07/19 07:08:54;;;;;;;;;;;25.70;99.90;;;;;;5063253;28;19935;-74
2022/07/19 07:11:21;;;;;;;;;;;25.80;99.90;;;;;;5061351;28;19925;-74
2022/07/19 07:13:47;;;;;;;;;;;26.00;99.90;;;;;;5060781;28;20001;-74
2022/07/19 07:16:14;;;;;;;;;;;26.10;99.90;;;;;;5064806;28;19925;-75
2022/07/19 07:18:41;;;;;;;;;;;26.20;99.90;;;;;;5062485;28;19925;-74
2022/07/19 07:21:08;;;;;;;;;;;26.40;99.90;;;;;;5066541;28;20342;-74
2022/07/19 07:23:36;;;;;;;;;;;26.50;99.90;;;;;;5058751;28;19974;-75
2022/07/19 07:26:03;;;;;;;;;;;26.60;99.90;;;;;;5063325;28;20446;-74
2022/07/19 07:28:30;;;;;;;;;;;26.70;99.90;;;;;;5064887;28;19925;-75
2022/07/19 07:30:56;;;;;;;;;;;26.80;99.90;;;;;;5060047;28;19972;-74
2022/07/19 07:33:23;;;;;;;;;;;26.90;99.90;;;;;;5068961;28;19979;-75
2022/07/19 07:35:50;;;;;;;;;;;27.00;99.90;;;;;;5056207;28;19929;-75
2022/07/19 07:38:16;;;;;;;;;;;27.10;99.90;;;;;;5068831;28;19932;-75
2022/07/19 07:43:40;;;;;;;;;;;27.40;99.90;;;;;;5018183;28;19933;-71
2022/07/19 07:46:07;;;;;;;;;;;27.60;99.90;;;;;;5018552;28;20023;-70
2022/07/19 07:48:34;;;;;;;;;;;27.70;99.90;;;;;;5025575;28;19925;-71
2022/07/19 07:51:00;;;;;;;;;;;27.80;99.90;;;;;;5024003;28;19957;-71
2022/07/19 07:53:27;;;;;;;;;;;28.00;99.90;;;;;;5006611;28;20031;-69
2022/07/19 07:55:53;;;;;;;;;;;28.10;99.90;;;;;;5021667;28;20012;-71
2022/07/19 07:58:20;;;;;;;;;;;28.20;99.90;;;;;;5006980;28;19925;-71
2022/07/19 08:00:48;;;;;;;;;;;28.40;99.90;;;;;;4997608;28;19949;-69
2022/07/19 08:03:16;;;;;;;;;;;28.50;99.90;;;;;;5005256;28;19925;-71
2022/07/19 08:05:47;;;;;;;;;;;28.70;99.90;;;;;;5005148;28;20371;-71
2022/07/19 08:08:13;;;;;;;;;;;28.80;99.90;;;;;;4998519;28;19931;-71
2022/07/19 08:10:40;;;;;;;;;;;28.90;99.90;;;;;;5004208;28;19929;-71
2022/07/19 08:13:07;;;;;;;;;;;29.00;99.90;;;;;;4996791;28;19926;-72
2022/07/19 08:15:34;;;;;;;;;;;29.20;99.90;;;;;;5005555;28;19931;-71
2022/07/19 08:18:02;;;;;;;;;;;29.30;99.90;;;;;;5002307;28;20339;-71
2022/07/19 08:20:29;;;;;;;;;;;29.30;99.90;;;;;;5004817;28;19988;-71
2022/07/19 08:22:56;;;;;;;;;;;29.50;99.90;;;;;;4999309;28;19979;-71
2022/07/19 08:25:22;;;;;;;;;;;29.70;99.90;;;;;;5001902;28;19987;-71
2022/07/19 08:27:49;;;;;;;;;;;29.80;99.90;;;;;;5004051;28;19982;-71
2022/07/19 08:30:16;;;;;;;;;;;29.90;99.90;;;;;;5015203;28;19984;-69
2022/07/19 08:32:42;;;;;;;;;;;30.00;99.90;;;;;;4999373;28;20397;-69
2022/07/19 08:35:11;;;;;;;;;;;30.10;99.90;;;;;;5006828;28;19929;-69
2022/07/19 08:37:38;;;;;;;;;;;30.30;99.90;;;;;;5005741;28;19929;-69
2022/07/19 08:40:05;;;;;;;;;;;30.40;99.90;;;;;;5000387;28;19980;-69
2022/07/19 08:42:32;;;;;;;;;;;30.50;99.90;;;;;;5002998;28;19925;-69
2022/07/19 08:45:01;;;;;;;;;;;30.70;99.90;;;;;;5004327;28;19925;-69
2022/07/19 08:47:29;;;;;;;;;;;30.70;99.90;;;;;;5001214;28;19983;-69
2022/07/19 08:49:58;;;;;;;;;;;30.80;99.90;;;;;;5004941;28;19975;-69
2022/07/19 08:52:27;;;;;;;;;;;31.00;99.90;;;;;;5007053;28;19975;-70
2022/07/19 08:54:55;;;;;;;;;;;31.10;99.90;;;;;;5006286;28;19983;-69
2022/07/19 09:00:06;;;;;;;;;;;31.40;99.90;;;;;;5001311;28;19921;-69
2022/07/19 09:02:33;;;;;;;;;;;31.50;99.90;;;;;;5001346;28;19929;-69
2022/07/19 09:05:00;;;;;;;;;;;31.60;99.90;;;;;;5005892;28;19988;-69
2022/07/19 09:07:29;;;;;;;;;;;31.80;99.90;;;;;;5001432;28;19931;-69
2022/07/19 09:10:11;;;;;;;;;;;31.90;99.90;;;;;;5000855;28;19929;-70
2022/07/19 09:12:37;;;;;;;;;;;32.10;99.80;;;;;;4999367;28;19978;-69
2022/07/19 09:15:04;;;;;;;;;;;32.10;99.20;;;;;;5002644;28;20417;-69
2022/07/19 09:17:31;;;;;;;;;;;32.20;98.70;;;;;;5005105;28;19925;-69
2022/07/19 09:19:58;;;;;;;;;;;32.30;98.90;;;;;;5006574;28;19925;-69
2022/07/19 09:22:26;;;;;;;;;;;32.40;99.00;;;;;;4997047;28;20368;-69
2022/07/19 09:24:54;;;;;;;;;;;32.60;98.30;;;;;;4998288;28;19925;-69
2022/07/19 09:27:25;;;;;;;;;;;32.70;97.50;;;;;;5008464;28;19979;-69
2022/07/19 09:29:53;;;;;;;;;;;32.80;98.00;;;;;;4994093;28;20008;-70
2022/07/19 09:32:21;;;;;;;;;;;32.80;98.00;;;;;;5015611;28;20385;-69
2022/07/19 09:34:50;;;;;;;;;;;33.00;97.60;;;;;;5007379;28;20458;-70
2022/07/19 09:37:18;;;;;;;;;;;33.10;97.10;;;;;;5000151;28;19930;-69
2022/07/19 09:39:46;;;;;;;;;;;33.20;97.30;;;;;;5004094;28;20016;-69
2022/07/19 09:42:15;;;;;;;;;;;33.40;97.00;;;;;;4996749;28;19945;-69
2022/07/19 09:44:42;;;;;;;;;;;33.40;96.80;;;;;;4997566;28;19925;-69
2022/07/19 09:47:09;;;;;;;;;;;33.60;96.20;;;;;;5000082;28;19980;-69
2022/07/19 09:49:36;;;;;;;;;;;33.70;95.80;;;;;;5003375;28;20032;-69
2022/07/19 09:52:03;;;;;;;;;;;33.70;95.90;;;;;;4998824;28;19975;-69
2022/07/19 09:54:31;;;;;;;;;;;33.80;96.10;;;;;;4994630;28;19925;-69
2022/07/19 09:56:58;;;;;;;;;;;33.80;96.30;;;;;;5024461;28;19925;-69
2022/07/19 09:59:27;;;;;;;;;;;34.00;96.20;;;;;;4997898;28;19971;-69
2022/07/19 10:01:54;;;;;;;;;;;34.10;95.80;;;;;;4997971;28;19964;-69
2022/07/19 10:04:22;;;;;;;;;;;34.20;95.80;;;;;;5008134;28;19929;-69
2022/07/19 10:06:50;;;;;;;;;;;34.30;95.10;;;;;;4996140;28;19925;-71
2022/07/19 10:09:18;;;;;;;;;;;34.20;95.30;;;;;;4998828;28;20261;-69
2022/07/19 10:11:45;;;;;;;;;;;34.20;95.50;;;;;;4995640;28;19926;-69
2022/07/19 10:14:12;;;;;;;;;;;34.20;95.50;;;;;;4994976;28;19925;-70
2022/07/19 10:16:46;;;;;;;;;;;34.40;95.10;;;;;;4993931;28;20393;-70
2022/07/19 10:19:16;;;;;;;;;;;34.50;95.00;;;;;;5000687;28;19930;-70
2022/07/19 10:21:44;;;;;;;;;;;34.70;95.30;;;;;;5003618;28;20396;-69
2022/07/19 10:24:11;;;;;;;;;;;34.90;93.80;;;;;;4997246;28;19932;-70
2022/07/19 10:26:38;;;;;;;;;;;34.90;94.80;;;;;;5002975;28;19940;-69
2022/07/19 10:29:09;;;;;;;;;;;35.00;94.70;;;;;;5000226;28;19949;-70
2022/07/19 10:31:36;;;;;;;;;;;35.10;94.30;;;;;;4997866;28;20025;-70
2022/07/19 10:34:05;;;;;;;;;;;35.20;93.50;;;;;;5004491;28;19929;-70
2022/07/19 10:36:33;;;;;;;;;;;35.20;93.40;;;;;;5016509;28;20467;-70
2022/07/19 10:39:18;;;;;;;;;;;35.30;93.20;;;;;;4995674;28;20450;-70
2022/07/19 10:42:00;;;;;;;;;;;35.40;94.10;;;;;;4997468;28;20355;-70
2022/07/19 10:44:26;;;;;;;;;;;35.60;94.10;;;;;;5005216;28;19933;-70
2022/07/19 10:46:53;;;;;;;;;;;35.80;93.70;;;;;;5000405;28;20370;-70
2022/07/19 10:49:35;;;;;;;;;;;35.80;93.40;;;;;;5001650;28;19933;-70
2022/07/19 10:52:16;;;;;;;;;;;35.90;93.20;;;;;;5011319;28;19956;-70
2022/07/19 10:54:44;;;;;;;;;;;35.80;93.00;;;;;;5017844;28;19987;-70
2022/07/19 10:57:11;;;;;;;;;;;35.90;93.20;;;;;;4998100;28;19932;-70
2022/07/19 10:59:42;;;;;;;;;;;36.00;92.90;;;;;;5004687;28;20347;-70
2022/07/19 11:02:21;;;;;;;;;;;36.10;92.80;;;;;;4997393;28;19992;-71
2022/07/19 11:04:48;;;;;;;;;;;36.10;92.40;;;;;;4991678;28;20348;-70
2022/07/19 11:07:17;;;;;;;;;;;36.20;92.40;;;;;;4997119;28;19929;-71
2022/07/19 11:09:46;;;;;;;;;;;36.30;91.90;;;;;;5015161;28;19932;-70
2022/07/19 11:12:35;;;;;;;;;;;36.40;92.10;;;;;;5001673;28;19925;-71
2022/07/19 11:15:04;;;;;;;;;;;36.60;91.90;;;;;;4989993;28;19926;-71
2022/07/19 11:17:31;;;;;;;;;;;36.80;91.70;;;;;;4999592;28;19934;-70
2022/07/19 11:19:58;;;;;;;;;;;36.80;90.90;;;;;;5002975;28;19956;-71
2022/07/19 11:22:25;;;;;;;;;;;36.80;90.30;;;;;;5007718;28;19933;-71
2022/07/19 11:24:54;;;;;;;;;;;36.90;90.50;;;;;;5021790;28;19959;-71
2022/07/19 11:27:21;;;;;;;;;;;37.10;90.60;;;;;;5003442;28;20015;-71
2022/07/19 11:29:54;;;;;;;;;;;37.30;89.90;;;;;;4998902;28;20021;-71
2022/07/19 11:32:20;;;;;;;;;;;37.30;88.30;;;;;;5020824;28;20397;-71
2022/07/19 11:34:53;;;;;;;;;;;37.50;87.50;;;;;;5000400;28;20414;-71
2022/07/19 11:37:23;;;;;;;;;;;37.60;87.90;;;;;;5002915;28;20340;-71
2022/07/19 11:39:50;;;;;;;;;;;37.50;88.10;;;;;;4997875;28;19987;-71
2022/07/19 11:42:29;;;;;;;;;;;37.80;89.80;;;;;;4999455;28;19933;-72
2022/07/19 11:44:56;;;;;;;;;;;38.90;87.60;;;;;;4999976;28;20299;-71
2022/07/19 11:47:22;;;;;;;;;;;40.60;87.50;;;;;;5002379;28;20347;-71
2022/07/19 11:49:49;;;;;;;;;;;42.00;85.40;;;;;;4998759;28;19972;-71
2022/07/19 11:52:16;;;;;;;;;;;42.70;84.60;;;;;;5000186;28;19930;-71
2022/07/19 11:54:43;;;;;;;;;;;43.90;85.00;;;;;;5000013;28;20352;-71
2022/07/19 11:57:22;;;;;;;;;;;44.50;81.30;;;;;;4999183;28;20471;-70
2022/07/19 11:59:51;;;;;;;;;;;45.40;81.60;;;;;;5007336;28;19925;-71
2022/07/19 12:02:17;;;;;;;;;;;45.60;80.30;;;;;;5001350;28;19984;-71
2022/07/19 12:04:44;;;;;;;;;;;46.20;80.70;;;;;;5007031;28;19925;-71
2022/07/19 12:07:11;;;;;;;;;;;46.70;79.20;;;;;;5002817;28;19980;-71
2022/07/19 12:09:38;;;;;;;;;;;46.30;79.70;;;;;;4999458;28;19929;-70
2022/07/19 12:12:12;;;;;;;;;;;46.30;78.30;;;;;;5002800;28;20372;-71
2022/07/19 12:14:40;;;;;;;;;;;46.80;77.40;;;;;;4993984;28;19937;-72
2022/07/19 12:17:11;;;;;;;;;;;47.30;76.80;;;;;;5003628;28;20023;-71
2022/07/19 12:19:38;;;;;;;;;;;47.00;76.30;;;;;;5002535;28;19929;-71
2022/07/19 12:22:06;;;;;;;;;;;46.60;76.40;;;;;;5000147;28;19973;-71
2022/07/19 12:24:33;;;;;;;;;;;46.30;77.20;;;;;;5000082;28;19926;-71
2022/07/19 12:27:01;;;;;;;;;;;45.80;77.00;;;;;;4996828;28;19925;-71
2022/07/19 12:29:29;;;;;;;;;;;46.40;77.10;;;;;;5000354;28;19933;-72
2022/07/19 12:31:58;;;;;;;;;;;47.00;76.30;;;;;;5003511;28;19929;-70
2022/07/19 12:34:26;;;;;;;;;;;47.50;76.30;;;;;;5001173;28;19979;-71
2022/07/19 12:36:54;;;;;;;;;;;47.10;75.10;;;;;;5006632;28;19929;-69
2022/07/19 12:39:22;;;;;;;;;;;46.90;75.80;;;;;;4993734;28;19980;-70
2022/07/19 12:41:59;;;;;;;;;;;46.80;75.00;;;;;;4995038;28;20026;-72
2022/07/19 12:44:27;;;;;;;;;;;47.60;74.30;;;;;;4999227;28;19929;-74
2022/07/19 12:46:54;;;;;;;;;;;47.90;72.60;;;;;;4999107;28;19925;-73
2022/07/19 12:49:20;;;;;;;;;;;47.40;72.70;;;;;;4996786;28;19930;-73
2022/07/19 12:51:48;;;;;;;;;;;47.60;72.90;;;;;;5008323;28;20008;-74
2022/07/19 12:54:15;;;;;;;;;;;47.90;73.50;;;;;;5000104;28;20020;-73
2022/07/19 12:56:42;;;;;;;;;;;48.40;71.80;;;;;;5003379;28;19978;-73
2022/07/19 13:01:53;;;;;;;;;;;47.70;71.80;;;;;;5016616;28;20417;-73
2022/07/19 13:04:21;;;;;;;;;;;47.60;71.70;;;;;;5002137;28;19971;-76
2022/07/19 13:06:49;;;;;;;;;;;48.00;70.60;;;;;;4999368;28;19929;-72
2022/07/19 13:09:15;;;;;;;;;;;48.20;70.30;;;;;;5022052;28;19929;-72
2022/07/19 13:11:42;;;;;;;;;;;48.30;69.50;;;;;;5006039;28;20024;-70
2022/07/19 13:14:11;;;;;;;;;;;48.00;68.70;;;;;;5001191;28;20015;-71
2022/07/19 13:16:38;;;;;;;;;;;47.70;69.90;;;;;;5018834;28;20435;-71
2022/07/19 13:19:05;;;;;;;;;;;48.20;69.70;;;;;;5020096;28;20033;-70
2022/07/19 13:21:32;;;;;;;;;;;48.00;69.40;;;;;;5007247;28;19935;-73
2022/07/19 13:24:00;;;;;;;;;;;48.40;68.50;;;;;;5000438;28;19932;-73
2022/07/19 13:26:26;;;;;;;;;;;48.40;69.20;;;;;;5019290;28;19961;-72
2022/07/19 13:28:53;;;;;;;;;;;48.30;67.90;;;;;;5018426;28;19926;-73
2022/07/19 13:31:20;;;;;;;;;;;47.90;69.70;;;;;;4999463;28;19926;-73
2022/07/19 13:33:46;;;;;;;;;;;48.10;69.20;;;;;;5006772;28;20313;-73
2022/07/19 13:36:13;;;;;;;;;;;48.80;67.60;;;;;;5001087;28;20017;-73
2022/07/19 13:38:41;;;;;;;;;;;48.60;66.90;;;;;;4998570;28;20444;-72
2022/07/19 13:41:09;;;;;;;;;;;48.50;66.30;;;;;;5002572;28;19933;-74
2022/07/19 13:43:36;;;;;;;;;;;48.20;68.20;;;;;;5003237;28;20029;-74
2022/07/19 13:46:03;;;;;;;;;;;48.60;68.40;;;;;;4999451;28;19931;-73
2022/07/19 13:48:29;;;;;;;;;;;49.00;66.30;;;;;;5016242;28;20345;-74
2022/07/19 13:50:56;;;;;;;;;;;48.80;65.70;;;;;;5001801;28;20028;-74
2022/07/19 13:53:22;;;;;;;;;;;48.90;66.90;;;;;;5025194;28;20028;-74
2022/07/19 13:55:49;;;;;;;;;;;49.10;64.90;;;;;;5016913;28;20392;-75
2022/07/19 13:58:17;;;;;;;;;;;48.90;64.80;;;;;;4997125;28;19957;-74
2022/07/19 14:00:46;;;;;;;;;;;48.40;64.60;;;;;;4999658;28;20385;-74
2022/07/19 14:03:13;;;;;;;;;;;48.40;64.80;;;;;;4999186;28;19925;-74
2022/07/19 14:05:40;;;;;;;;;;;48.70;65.20;;;;;;4999523;28;20308;-73
2022/07/19 14:08:06;;;;;;;;;;;48.00;64.50;;;;;;5007614;28;19925;-71
2022/07/19 14:10:34;;;;;;;;;;;47.10;65.10;;;;;;5002996;28;19925;-72
2022/07/19 14:13:01;;;;;;;;;;;47.20;65.60;;;;;;5001080;28;20020;-71
2022/07/19 14:15:29;;;;;;;;;;;47.20;65.30;;;;;;5003170;28;19968;-72
2022/07/19 14:17:56;;;;;;;;;;;47.90;64.40;;;;;;4999661;28;19925;-72
2022/07/19 14:20:23;;;;;;;;;;;48.00;64.00;;;;;;5001948;28;19925;-72
2022/07/19 14:22:50;;;;;;;;;;;47.80;64.20;;;;;;4997141;28;19929;-72
2022/07/19 14:25:17;;;;;;;;;;;47.90;63.70;;;;;;5002274;28;19991;-72
2022/07/19 14:27:44;;;;;;;;;;;47.40;64.10;;;;;;4996831;28;19979;-72
2022/07/19 14:30:11;;;;;;;;;;;47.50;64.40;;;;;;5000643;28;20301;-72